sensor_id;sensor_type;location;lat;lon;timestamp;P1;durP1;ratioP1;P2;durP2;ratioP2
75550;SDS011;65071;53.082;18.218;2024-03-02T00:00:30;52.70;;;22.20;;
75550;SDS011;65071;53.082;18.218;2024-03-02T00:02:57;50.60;;;20.80;;
75550;SDS011;65071;53.082;18.218;2024-03-02T00:05:23;46.50;;;20.70;;
75550;SDS011;65071;53.082;18.218;2024-03-02T00:07:53;50.20;;;18.50;;
75550;SDS011;65071;53.082;18.218;2024-03-02T00:10:22;49.20;;;22.00;;
75550;SDS011;65071;53.082;18.218;2024-03-02T00:12:57;51.30;;;23.00;;
75550;SDS011;65071;53.082;18.218;2024-03-02T00:15:47;50.10;;;22.10;;
75550;SDS011;65071;53.082;18.218;2024-03-02T00:18:20;48.40;;;19.90;;
75550;SDS011;65071;53.082;18.218;2024-03-02T00:20:52;51.90;;;23.80;;
75550;SDS011;65071;53.082;18.218;2024-03-02T00:23:19;58.40;;;23.10;;
75550;SDS011;65071;53.082;18.218;2024-03-02T00:25:49;44.70;;;19.50;;
75550;SDS011;65071;53.082;18.218;2024-03-02T00:28:20;59.50;;;23.90;;
75550;SDS011;65071;53.082;18.218;2024-03-02T00:30:52;49.60;;;21.60;;
75550;SDS011;65071;53.082;18.218;2024-03-02T00:33:23;48.70;;;20.30;;
75550;SDS011;65071;53.082;18.218;2024-03-02T00:38:18;52.40;;;22.40;;
75550;SDS011;65071;53.082;18.218;2024-03-02T00:40:45;50.20;;;21.00;;
75550;SDS011;65071;53.082;18.218;2024-03-02T00:43:18;39.90;;;17.80;;
75550;SDS011;65071;53.082;18.218;2024-03-02T00:46:07;45.40;;;17.60;;
75550;SDS011;65071;53.082;18.218;2024-03-02T00:48:33;36.80;;;16.20;;
75550;SDS011;65071;53.082;18.218;2024-03-02T00:51:03;48.20;;;21.30;;
75550;SDS011;65071;53.082;18.218;2024-03-02T00:53:33;52.40;;;24.20;;
75550;SDS011;65071;53.082;18.218;2024-03-02T00:55:59;39.60;;;18.90;;
75550;SDS011;65071;53.082;18.218;2024-03-02T00:58:27;51.20;;;23.00;;
75550;SDS011;65071;53.082;18.218;2024-03-02T01:00:53;50.40;;;22.70;;
75550;SDS011;65071;53.082;18.218;2024-03-02T01:03:20;46.30;;;20.40;;
75550;SDS011;65071;53.082;18.218;2024-03-02T01:05:46;51.40;;;22.70;;
75550;SDS011;65071;53.082;18.218;2024-03-02T01:08:12;38.20;;;16.80;;
75550;SDS011;65071;53.082;18.218;2024-03-02T01:10:38;47.70;;;18.60;;
75550;SDS011;65071;53.082;18.218;2024-03-02T01:13:04;53.70;;;23.20;;
75550;SDS011;65071;53.082;18.218;2024-03-02T01:15:30;43.00;;;19.30;;
75550;SDS011;65071;53.082;18.218;2024-03-02T01:17:57;51.50;;;22.50;;
75550;SDS011;65071;53.082;18.218;2024-03-02T01:20:23;46.60;;;21.80;;
75550;SDS011;65071;53.082;18.218;2024-03-02T01:22:51;40.90;;;17.80;;
75550;SDS011;65071;53.082;18.218;2024-03-02T01:25:18;50.10;;;21.60;;
75550;SDS011;65071;53.082;18.218;2024-03-02T01:27:44;47.90;;;19.90;;
75550;SDS011;65071;53.082;18.218;2024-03-02T01:30:10;48.20;;;21.30;;
75550;SDS011;65071;53.082;18.218;2024-03-02T01:32:40;37.80;;;17.20;;
75550;SDS011;65071;53.082;18.218;2024-03-02T01:35:06;52.00;;;23.80;;
75550;SDS011;65071;53.082;18.218;2024-03-02T01:37:33;48.50;;;21.40;;
75550;SDS011;65071;53.082;18.218;2024-03-02T01:39:59;50.30;;;22.20;;
75550;SDS011;65071;53.082;18.218;2024-03-02T01:42:25;43.20;;;19.90;;
75550;SDS011;65071;53.082;18.218;2024-03-02T01:44:52;49.20;;;22.60;;
75550;SDS011;65071;53.082;18.218;2024-03-02T01:47:18;38.50;;;17.20;;
75550;SDS011;65071;53.082;18.218;2024-03-02T01:49:44;43.40;;;20.90;;
75550;SDS011;65071;53.082;18.218;2024-03-02T01:52:11;45.60;;;21.70;;
75550;SDS011;65071;53.082;18.218;2024-03-02T01:54:37;42.40;;;20.20;;
75550;SDS011;65071;53.082;18.218;2024-03-02T01:57:04;40.80;;;18.90;;
75550;SDS011;65071;53.082;18.218;2024-03-02T01:59:31;34.40;;;15.80;;
75550;SDS011;65071;53.082;18.218;2024-03-02T02:01:57;46.40;;;21.70;;
75550;SDS011;65071;53.082;18.218;2024-03-02T02:04:24;40.30;;;18.80;;
75550;SDS011;65071;53.082;18.218;2024-03-02T02:09:20;42.10;;;19.80;;
75550;SDS011;65071;53.082;18.218;2024-03-02T02:11:46;32.70;;;15.40;;
75550;SDS011;65071;53.082;18.218;2024-03-02T02:14:13;36.70;;;16.50;;
75550;SDS011;65071;53.082;18.218;2024-03-02T02:16:39;41.80;;;19.20;;
75550;SDS011;65071;53.082;18.218;2024-03-02T02:19:06;39.80;;;18.70;;
75550;SDS011;65071;53.082;18.218;2024-03-02T02:21:32;42.20;;;19.40;;
75550;SDS011;65071;53.082;18.218;2024-03-02T02:23:59;32.50;;;15.70;;
75550;SDS011;65071;53.082;18.218;2024-03-02T02:26:25;31.00;;;14.40;;
75550;SDS011;65071;53.082;18.218;2024-03-02T02:28:52;38.80;;;18.30;;
75550;SDS011;65071;53.082;18.218;2024-03-02T02:31:18;38.70;;;17.50;;
75550;SDS011;65071;53.082;18.218;2024-03-02T02:33:45;30.80;;;13.20;;
75550;SDS011;65071;53.082;18.218;2024-03-02T02:36:11;38.50;;;17.80;;
75550;SDS011;65071;53.082;18.218;2024-03-02T02:38:38;32.80;;;16.00;;
75550;SDS011;65071;53.082;18.218;2024-03-02T02:41:08;37.40;;;17.70;;
75550;SDS011;65071;53.082;18.218;2024-03-02T02:43:35;37.90;;;17.40;;
75550;SDS011;65071;53.082;18.218;2024-03-02T02:46:01;35.60;;;17.00;;
75550;SDS011;65071;53.082;18.218;2024-03-02T02:48:28;36.40;;;17.50;;
75550;SDS011;65071;53.082;18.218;2024-03-02T02:50:54;37.40;;;17.20;;
75550;SDS011;65071;53.082;18.218;2024-03-02T02:53:20;33.50;;;15.90;;
75550;SDS011;65071;53.082;18.218;2024-03-02T02:55:47;32.90;;;16.10;;
75550;SDS011;65071;53.082;18.218;2024-03-02T02:58:13;37.50;;;16.10;;
75550;SDS011;65071;53.082;18.218;2024-03-02T03:00:40;35.20;;;15.50;;
75550;SDS011;65071;53.082;18.218;2024-03-02T03:03:07;33.20;;;15.00;;
75550;SDS011;65071;53.082;18.218;2024-03-02T03:05:33;29.90;;;14.40;;
75550;SDS011;65071;53.082;18.218;2024-03-02T03:07:59;24.30;;;11.70;;
75550;SDS011;65071;53.082;18.218;2024-03-02T03:10:25;36.00;;;16.40;;
75550;SDS011;65071;53.082;18.218;2024-03-02T03:12:53;34.10;;;17.10;;
75550;SDS011;65071;53.082;18.218;2024-03-02T03:15:21;25.10;;;12.10;;
75550;SDS011;65071;53.082;18.218;2024-03-02T03:17:48;29.70;;;13.40;;
75550;SDS011;65071;53.082;18.218;2024-03-02T03:20:14;31.50;;;16.20;;
75550;SDS011;65071;53.082;18.218;2024-03-02T03:22:41;36.80;;;16.80;;
75550;SDS011;65071;53.082;18.218;2024-03-02T03:25:07;35.20;;;17.50;;
75550;SDS011;65071;53.082;18.218;2024-03-02T03:27:34;28.00;;;13.80;;
75550;SDS011;65071;53.082;18.218;2024-03-02T03:30:00;28.70;;;14.70;;
75550;SDS011;65071;53.082;18.218;2024-03-02T03:32:26;27.70;;;15.30;;
75550;SDS011;65071;53.082;18.218;2024-03-02T03:34:53;31.00;;;15.20;;
75550;SDS011;65071;53.082;18.218;2024-03-02T03:37:19;27.70;;;14.80;;
75550;SDS011;65071;53.082;18.218;2024-03-02T03:39:45;23.30;;;10.30;;
75550;SDS011;65071;53.082;18.218;2024-03-02T03:42:12;30.30;;;15.30;;
75550;SDS011;65071;53.082;18.218;2024-03-02T03:44:38;24.10;;;12.20;;
75550;SDS011;65071;53.082;18.218;2024-03-02T03:47:06;25.50;;;13.10;;
75550;SDS011;65071;53.082;18.218;2024-03-02T03:49:32;27.50;;;15.30;;
75550;SDS011;65071;53.082;18.218;2024-03-02T03:51:59;25.50;;;13.50;;
75550;SDS011;65071;53.082;18.218;2024-03-02T03:54:25;30.50;;;14.20;;
75550;SDS011;65071;53.082;18.218;2024-03-02T03:56:51;21.50;;;11.30;;
75550;SDS011;65071;53.082;18.218;2024-03-02T03:59:18;26.40;;;12.90;;
75550;SDS011;65071;53.082;18.218;2024-03-02T04:01:44;28.30;;;13.30;;
75550;SDS011;65071;53.082;18.218;2024-03-02T04:04:11;27.90;;;15.00;;
75550;SDS011;65071;53.082;18.218;2024-03-02T04:06:37;23.30;;;13.20;;
75550;SDS011;65071;53.082;18.218;2024-03-02T04:09:04;24.00;;;12.80;;
75550;SDS011;65071;53.082;18.218;2024-03-02T04:11:30;20.20;;;9.80;;
75550;SDS011;65071;53.082;18.218;2024-03-02T04:13:56;22.30;;;10.60;;
75550;SDS011;65071;53.082;18.218;2024-03-02T04:16:23;25.20;;;13.50;;
75550;SDS011;65071;53.082;18.218;2024-03-02T04:18:49;26.00;;;14.00;;
75550;SDS011;65071;53.082;18.218;2024-03-02T04:21:15;22.40;;;12.40;;
75550;SDS011;65071;53.082;18.218;2024-03-02T04:23:41;24.70;;;12.50;;
75550;SDS011;65071;53.082;18.218;2024-03-02T04:26:08;24.90;;;12.70;;
75550;SDS011;65071;53.082;18.218;2024-03-02T04:28:34;18.60;;;10.10;;
75550;SDS011;65071;53.082;18.218;2024-03-02T04:31:01;23.40;;;13.60;;
75550;SDS011;65071;53.082;18.218;2024-03-02T04:33:27;18.70;;;10.00;;
75550;SDS011;65071;53.082;18.218;2024-03-02T04:35:54;23.70;;;12.50;;
75550;SDS011;65071;53.082;18.218;2024-03-02T04:38:20;26.80;;;13.80;;
75550;SDS011;65071;53.082;18.218;2024-03-02T04:40:47;21.80;;;11.50;;
75550;SDS011;65071;53.082;18.218;2024-03-02T04:43:13;26.30;;;13.00;;
75550;SDS011;65071;53.082;18.218;2024-03-02T04:45:42;23.70;;;13.30;;
75550;SDS011;65071;53.082;18.218;2024-03-02T04:48:08;21.50;;;10.80;;
75550;SDS011;65071;53.082;18.218;2024-03-02T04:50:35;24.00;;;13.20;;
75550;SDS011;65071;53.082;18.218;2024-03-02T04:53:01;28.40;;;15.40;;
75550;SDS011;65071;53.082;18.218;2024-03-02T04:55:28;26.50;;;14.20;;
75550;SDS011;65071;53.082;18.218;2024-03-02T04:57:55;27.60;;;15.40;;
75550;SDS011;65071;53.082;18.218;2024-03-02T05:00:22;27.50;;;14.60;;
75550;SDS011;65071;53.082;18.218;2024-03-02T05:02:49;25.50;;;12.80;;
75550;SDS011;65071;53.082;18.218;2024-03-02T05:05:15;29.60;;;16.20;;
75550;SDS011;65071;53.082;18.218;2024-03-02T05:07:41;24.40;;;13.00;;
75550;SDS011;65071;53.082;18.218;2024-03-02T05:10:10;27.00;;;14.60;;
75550;SDS011;65071;53.082;18.218;2024-03-02T05:12:37;28.70;;;15.50;;
75550;SDS011;65071;53.082;18.218;2024-03-02T05:15:23;32.60;;;17.00;;
75550;SDS011;65071;53.082;18.218;2024-03-02T05:17:49;30.40;;;16.30;;
75550;SDS011;65071;53.082;18.218;2024-03-02T05:20:15;30.40;;;15.40;;
75550;SDS011;65071;53.082;18.218;2024-03-02T05:22:41;27.70;;;14.90;;
75550;SDS011;65071;53.082;18.218;2024-03-02T05:25:08;29.30;;;15.00;;
75550;SDS011;65071;53.082;18.218;2024-03-02T05:27:35;27.80;;;15.80;;
75550;SDS011;65071;53.082;18.218;2024-03-02T05:30:02;30.50;;;15.40;;
75550;SDS011;65071;53.082;18.218;2024-03-02T05:32:29;26.50;;;14.20;;
75550;SDS011;65071;53.082;18.218;2024-03-02T05:34:56;26.50;;;14.00;;
75550;SDS011;65071;53.082;18.218;2024-03-02T05:37:22;27.80;;;14.90;;
75550;SDS011;65071;53.082;18.218;2024-03-02T05:39:49;29.20;;;14.90;;
75550;SDS011;65071;53.082;18.218;2024-03-02T05:42:15;24.40;;;13.30;;
75550;SDS011;65071;53.082;18.218;2024-03-02T05:44:43;24.90;;;13.80;;
75550;SDS011;65071;53.082;18.218;2024-03-02T05:47:09;22.00;;;11.50;;
75550;SDS011;65071;53.082;18.218;2024-03-02T05:49:35;28.70;;;15.60;;
75550;SDS011;65071;53.082;18.218;2024-03-02T05:52:01;26.80;;;14.40;;
75550;SDS011;65071;53.082;18.218;2024-03-02T05:54:29;26.40;;;14.10;;
75550;SDS011;65071;53.082;18.218;2024-03-02T05:56:55;26.40;;;13.30;;
75550;SDS011;65071;53.082;18.218;2024-03-02T05:59:22;25.40;;;13.10;;
75550;SDS011;65071;53.082;18.218;2024-03-02T06:01:48;27.90;;;14.70;;
75550;SDS011;65071;53.082;18.218;2024-03-02T06:04:18;26.20;;;12.70;;
75550;SDS011;65071;53.082;18.218;2024-03-02T06:06:44;25.80;;;13.10;;
75550;SDS011;65071;53.082;18.218;2024-03-02T06:09:11;24.80;;;13.40;;
75550;SDS011;65071;53.082;18.218;2024-03-02T06:11:40;28.80;;;13.90;;
75550;SDS011;65071;53.082;18.218;2024-03-02T06:14:07;23.50;;;13.20;;
75550;SDS011;65071;53.082;18.218;2024-03-02T06:16:35;27.30;;;15.30;;
75550;SDS011;65071;53.082;18.218;2024-03-02T06:19:01;26.00;;;14.20;;
75550;SDS011;65071;53.082;18.218;2024-03-02T06:21:27;30.70;;;16.70;;
75550;SDS011;65071;53.082;18.218;2024-03-02T06:23:54;26.90;;;14.90;;
75550;SDS011;65071;53.082;18.218;2024-03-02T06:26:21;25.50;;;14.50;;
75550;SDS011;65071;53.082;18.218;2024-03-02T06:28:47;20.50;;;11.30;;
75550;SDS011;65071;53.082;18.218;2024-03-02T06:31:13;28.40;;;15.10;;
75550;SDS011;65071;53.082;18.218;2024-03-02T06:33:39;26.60;;;14.60;;
75550;SDS011;65071;53.082;18.218;2024-03-02T06:36:06;26.40;;;13.20;;
75550;SDS011;65071;53.082;18.218;2024-03-02T06:38:37;25.70;;;11.90;;
75550;SDS011;65071;53.082;18.218;2024-03-02T06:41:05;29.40;;;16.00;;
75550;SDS011;65071;53.082;18.218;2024-03-02T06:43:31;29.70;;;15.00;;
75550;SDS011;65071;53.082;18.218;2024-03-02T06:45:57;27.70;;;14.70;;
75550;SDS011;65071;53.082;18.218;2024-03-02T06:48:24;27.60;;;15.00;;
75550;SDS011;65071;53.082;18.218;2024-03-02T06:50:50;26.60;;;14.60;;
75550;SDS011;65071;53.082;18.218;2024-03-02T06:53:17;26.30;;;14.20;;
75550;SDS011;65071;53.082;18.218;2024-03-02T06:55:45;31.00;;;16.80;;
75550;SDS011;65071;53.082;18.218;2024-03-02T06:58:12;28.20;;;15.20;;
75550;SDS011;65071;53.082;18.218;2024-03-02T07:00:41;25.70;;;13.60;;
75550;SDS011;65071;53.082;18.218;2024-03-02T07:03:08;24.80;;;13.10;;
75550;SDS011;65071;53.082;18.218;2024-03-02T07:05:36;27.80;;;14.40;;
75550;SDS011;65071;53.082;18.218;2024-03-02T07:08:02;30.20;;;15.90;;
75550;SDS011;65071;53.082;18.218;2024-03-02T07:10:31;24.20;;;13.00;;
75550;SDS011;65071;53.082;18.218;2024-03-02T07:12:57;28.20;;;14.90;;
75550;SDS011;65071;53.082;18.218;2024-03-02T07:15:24;27.20;;;14.30;;
75550;SDS011;65071;53.082;18.218;2024-03-02T07:17:53;27.00;;;14.10;;
75550;SDS011;65071;53.082;18.218;2024-03-02T07:20:19;29.30;;;16.10;;
75550;SDS011;65071;53.082;18.218;2024-03-02T07:22:46;30.10;;;16.10;;
75550;SDS011;65071;53.082;18.218;2024-03-02T07:25:12;26.80;;;14.70;;
75550;SDS011;65071;53.082;18.218;2024-03-02T07:27:39;24.70;;;13.50;;
75550;SDS011;65071;53.082;18.218;2024-03-02T07:30:06;30.10;;;15.60;;
75550;SDS011;65071;53.082;18.218;2024-03-02T07:32:33;25.90;;;13.10;;
75550;SDS011;65071;53.082;18.218;2024-03-02T07:34:59;29.60;;;15.70;;
75550;SDS011;65071;53.082;18.218;2024-03-02T07:37:27;30.10;;;14.80;;
75550;SDS011;65071;53.082;18.218;2024-03-02T07:39:54;31.00;;;15.30;;
75550;SDS011;65071;53.082;18.218;2024-03-02T07:42:20;27.40;;;15.40;;
75550;SDS011;65071;53.082;18.218;2024-03-02T07:44:47;23.30;;;13.20;;
75550;SDS011;65071;53.082;18.218;2024-03-02T07:47:13;28.70;;;15.90;;
75550;SDS011;65071;53.082;18.218;2024-03-02T07:49:40;23.10;;;13.30;;
75550;SDS011;65071;53.082;18.218;2024-03-02T07:52:06;29.40;;;15.80;;
75550;SDS011;65071;53.082;18.218;2024-03-02T07:54:33;29.30;;;14.60;;
75550;SDS011;65071;53.082;18.218;2024-03-02T07:57:00;26.80;;;13.60;;
75550;SDS011;65071;53.082;18.218;2024-03-02T07:59:26;28.70;;;15.60;;
75550;SDS011;65071;53.082;18.218;2024-03-02T08:01:52;28.70;;;15.30;;
75550;SDS011;65071;53.082;18.218;2024-03-02T08:04:21;27.90;;;15.10;;
75550;SDS011;65071;53.082;18.218;2024-03-02T08:06:47;26.70;;;13.50;;
75550;SDS011;65071;53.082;18.218;2024-03-02T08:09:13;24.80;;;13.50;;
75550;SDS011;65071;53.082;18.218;2024-03-02T08:11:40;22.30;;;12.00;;
75550;SDS011;65071;53.082;18.218;2024-03-02T08:14:06;29.30;;;15.50;;
75550;SDS011;65071;53.082;18.218;2024-03-02T08:16:33;29.90;;;15.30;;
75550;SDS011;65071;53.082;18.218;2024-03-02T08:19:00;25.50;;;14.60;;
75550;SDS011;65071;53.082;18.218;2024-03-02T08:21:26;26.90;;;15.00;;
75550;SDS011;65071;53.082;18.218;2024-03-02T08:23:52;25.50;;;14.10;;
75550;SDS011;65071;53.082;18.218;2024-03-02T08:26:18;26.70;;;14.50;;
75550;SDS011;65071;53.082;18.218;2024-03-02T08:28:45;27.60;;;13.60;;
75550;SDS011;65071;53.082;18.218;2024-03-02T08:31:11;30.40;;;15.60;;
75550;SDS011;65071;53.082;18.218;2024-03-02T08:33:37;27.30;;;14.90;;
75550;SDS011;65071;53.082;18.218;2024-03-02T08:36:04;28.20;;;15.30;;
75550;SDS011;65071;53.082;18.218;2024-03-02T08:38:31;25.40;;;14.50;;
75550;SDS011;65071;53.082;18.218;2024-03-02T08:40:57;22.40;;;12.60;;
75550;SDS011;65071;53.082;18.218;2024-03-02T08:43:24;22.80;;;12.80;;
75550;SDS011;65071;53.082;18.218;2024-03-02T08:45:50;26.30;;;14.40;;
75550;SDS011;65071;53.082;18.218;2024-03-02T08:48:17;27.90;;;14.90;;
75550;SDS011;65071;53.082;18.218;2024-03-02T08:50:44;23.30;;;12.30;;
75550;SDS011;65071;53.082;18.218;2024-03-02T08:53:10;25.80;;;14.90;;
75550;SDS011;65071;53.082;18.218;2024-03-02T08:55:37;26.00;;;13.80;;
75550;SDS011;65071;53.082;18.218;2024-03-02T08:58:03;22.90;;;13.70;;
75550;SDS011;65071;53.082;18.218;2024-03-02T09:00:29;26.40;;;13.80;;
75550;SDS011;65071;53.082;18.218;2024-03-02T09:02:56;23.40;;;14.10;;
75550;SDS011;65071;53.082;18.218;2024-03-02T09:05:22;26.60;;;15.30;;
75550;SDS011;65071;53.082;18.218;2024-03-02T09:07:48;31.00;;;15.10;;
75550;SDS011;65071;53.082;18.218;2024-03-02T09:10:14;23.40;;;13.00;;
75550;SDS011;65071;53.082;18.218;2024-03-02T09:12:40;26.50;;;14.70;;
75550;SDS011;65071;53.082;18.218;2024-03-02T09:15:07;24.70;;;13.60;;
75550;SDS011;65071;53.082;18.218;2024-03-02T09:17:34;27.30;;;15.10;;
75550;SDS011;65071;53.082;18.218;2024-03-02T09:20:01;24.30;;;14.10;;
75550;SDS011;65071;53.082;18.218;2024-03-02T09:22:27;22.30;;;12.50;;
75550;SDS011;65071;53.082;18.218;2024-03-02T09:24:53;25.50;;;13.90;;
75550;SDS011;65071;53.082;18.218;2024-03-02T09:27:20;25.90;;;15.20;;
75550;SDS011;65071;53.082;18.218;2024-03-02T09:29:46;25.10;;;13.60;;
75550;SDS011;65071;53.082;18.218;2024-03-02T09:32:13;23.60;;;13.30;;
75550;SDS011;65071;53.082;18.218;2024-03-02T09:34:40;24.10;;;13.50;;
75550;SDS011;65071;53.082;18.218;2024-03-02T09:37:07;24.20;;;12.70;;
75550;SDS011;65071;53.082;18.218;2024-03-02T09:39:33;20.60;;;12.10;;
75550;SDS011;65071;53.082;18.218;2024-03-02T09:42:01;21.00;;;12.20;;
75550;SDS011;65071;53.082;18.218;2024-03-02T09:46:56;19.40;;;10.90;;
75550;SDS011;65071;53.082;18.218;2024-03-02T09:49:22;25.40;;;14.30;;
75550;SDS011;65071;53.082;18.218;2024-03-02T09:51:49;21.00;;;12.20;;
75550;SDS011;65071;53.082;18.218;2024-03-02T09:54:16;23.70;;;14.10;;
75550;SDS011;65071;53.082;18.218;2024-03-02T09:56:43;25.80;;;14.90;;
75550;SDS011;65071;53.082;18.218;2024-03-02T09:59:10;23.90;;;13.70;;
75550;SDS011;65071;53.082;18.218;2024-03-02T10:01:37;23.70;;;13.50;;
75550;SDS011;65071;53.082;18.218;2024-03-02T10:04:04;23.30;;;12.90;;
75550;SDS011;65071;53.082;18.218;2024-03-02T10:06:31;21.70;;;12.70;;
75550;SDS011;65071;53.082;18.218;2024-03-02T10:08:57;19.50;;;11.10;;
75550;SDS011;65071;53.082;18.218;2024-03-02T10:11:28;21.40;;;13.70;;
75550;SDS011;65071;53.082;18.218;2024-03-02T10:14:10;21.10;;;11.00;;
75550;SDS011;65071;53.082;18.218;2024-03-02T10:16:38;22.70;;;13.20;;
75550;SDS011;65071;53.082;18.218;2024-03-02T10:19:15;22.80;;;12.40;;
75550;SDS011;65071;53.082;18.218;2024-03-02T10:21:44;26.50;;;15.80;;
75550;SDS011;65071;53.082;18.218;2024-03-02T10:24:12;22.80;;;13.70;;
75550;SDS011;65071;53.082;18.218;2024-03-02T10:26:39;22.20;;;12.30;;
75550;SDS011;65071;53.082;18.218;2024-03-02T10:29:05;24.20;;;14.10;;
75550;SDS011;65071;53.082;18.218;2024-03-02T10:31:31;22.60;;;12.90;;
75550;SDS011;65071;53.082;18.218;2024-03-02T10:33:58;24.40;;;12.60;;
75550;SDS011;65071;53.082;18.218;2024-03-02T10:36:25;17.00;;;9.80;;
75550;SDS011;65071;53.082;18.218;2024-03-02T10:38:52;23.50;;;13.20;;
75550;SDS011;65071;53.082;18.218;2024-03-02T10:41:23;24.30;;;14.10;;
75550;SDS011;65071;53.082;18.218;2024-03-02T10:43:53;22.50;;;12.60;;
75550;SDS011;65071;53.082;18.218;2024-03-02T10:46:29;20.30;;;11.20;;
75550;SDS011;65071;53.082;18.218;2024-03-02T10:48:57;25.80;;;13.90;;
75550;SDS011;65071;53.082;18.218;2024-03-02T10:51:27;23.70;;;13.00;;
75550;SDS011;65071;53.082;18.218;2024-03-02T10:54:00;31.20;;;15.30;;
75550;SDS011;65071;53.082;18.218;2024-03-02T10:56:28;22.80;;;13.60;;
75550;SDS011;65071;53.082;18.218;2024-03-02T10:59:24;24.80;;;14.40;;
75550;SDS011;65071;53.082;18.218;2024-03-02T11:01:56;25.70;;;15.20;;
75550;SDS011;65071;53.082;18.218;2024-03-02T11:04:27;29.50;;;15.70;;
75550;SDS011;65071;53.082;18.218;2024-03-02T11:06:56;29.20;;;16.80;;
75550;SDS011;65071;53.082;18.218;2024-03-02T11:09:27;28.20;;;15.90;;
75550;SDS011;65071;53.082;18.218;2024-03-02T11:12:03;24.20;;;13.80;;
75550;SDS011;65071;53.082;18.218;2024-03-02T11:14:36;28.50;;;14.90;;
75550;SDS011;65071;53.082;18.218;2024-03-02T11:17:06;25.90;;;15.50;;
75550;SDS011;65071;53.082;18.218;2024-03-02T11:19:33;25.20;;;15.30;;
75550;SDS011;65071;53.082;18.218;2024-03-02T11:22:01;23.50;;;13.50;;
75550;SDS011;65071;53.082;18.218;2024-03-02T11:24:29;26.80;;;15.10;;
75550;SDS011;65071;53.082;18.218;2024-03-02T11:26:59;25.10;;;15.00;;
75550;SDS011;65071;53.082;18.218;2024-03-02T11:34:50;29.10;;;16.20;;
75550;SDS011;65071;53.082;18.218;2024-03-02T11:37:17;25.00;;;14.10;;
75550;SDS011;65071;53.082;18.218;2024-03-02T11:39:47;25.40;;;14.20;;
75550;SDS011;65071;53.082;18.218;2024-03-02T11:42:16;27.20;;;15.80;;
75550;SDS011;65071;53.082;18.218;2024-03-02T11:44:43;30.90;;;16.50;;
75550;SDS011;65071;53.082;18.218;2024-03-02T11:47:15;30.10;;;16.90;;
75550;SDS011;65071;53.082;18.218;2024-03-02T11:49:44;30.70;;;16.20;;
75550;SDS011;65071;53.082;18.218;2024-03-02T11:54:40;25.90;;;13.10;;
75550;SDS011;65071;53.082;18.218;2024-03-02T11:57:22;29.40;;;13.90;;
75550;SDS011;65071;53.082;18.218;2024-03-02T11:59:49;27.00;;;14.40;;
75550;SDS011;65071;53.082;18.218;2024-03-02T12:02:16;28.30;;;15.50;;
75550;SDS011;65071;53.082;18.218;2024-03-02T12:04:44;28.20;;;15.70;;
75550;SDS011;65071;53.082;18.218;2024-03-02T12:07:12;22.70;;;13.10;;
75550;SDS011;65071;53.082;18.218;2024-03-02T12:09:45;25.90;;;14.70;;
75550;SDS011;65071;53.082;18.218;2024-03-02T12:12:12;32.00;;;17.70;;
75550;SDS011;65071;53.082;18.218;2024-03-02T12:14:49;30.60;;;19.00;;
75550;SDS011;65071;53.082;18.218;2024-03-02T12:17:16;26.30;;;14.80;;
75550;SDS011;65071;53.082;18.218;2024-03-02T12:19:43;28.40;;;16.00;;
75550;SDS011;65071;53.082;18.218;2024-03-02T12:22:10;32.20;;;18.10;;
75550;SDS011;65071;53.082;18.218;2024-03-02T12:24:36;32.00;;;17.30;;
75550;SDS011;65071;53.082;18.218;2024-03-02T12:27:03;34.20;;;18.80;;
75550;SDS011;65071;53.082;18.218;2024-03-02T12:29:32;30.70;;;16.10;;
75550;SDS011;65071;53.082;18.218;2024-03-02T12:31:58;31.90;;;17.60;;
75550;SDS011;65071;53.082;18.218;2024-03-02T12:34:25;25.50;;;14.10;;
75550;SDS011;65071;53.082;18.218;2024-03-02T12:36:52;33.00;;;18.90;;
75550;SDS011;65071;53.082;18.218;2024-03-02T12:39:19;35.90;;;19.40;;
75550;SDS011;65071;53.082;18.218;2024-03-02T12:41:46;31.20;;;18.40;;
75550;SDS011;65071;53.082;18.218;2024-03-02T12:44:12;34.70;;;18.20;;
75550;SDS011;65071;53.082;18.218;2024-03-02T12:46:39;33.90;;;16.60;;
75550;SDS011;65071;53.082;18.218;2024-03-02T12:49:09;29.30;;;15.90;;
75550;SDS011;65071;53.082;18.218;2024-03-02T12:51:37;33.00;;;18.20;;
75550;SDS011;65071;53.082;18.218;2024-03-02T12:54:07;29.30;;;16.00;;
75550;SDS011;65071;53.082;18.218;2024-03-02T12:56:34;29.50;;;16.70;;
75550;SDS011;65071;53.082;18.218;2024-03-02T12:59:01;26.00;;;14.70;;
75550;SDS011;65071;53.082;18.218;2024-03-02T13:01:28;33.00;;;18.20;;
75550;SDS011;65071;53.082;18.218;2024-03-02T13:03:54;28.80;;;14.90;;
75550;SDS011;65071;53.082;18.218;2024-03-02T13:06:23;26.40;;;14.20;;
75550;SDS011;65071;53.082;18.218;2024-03-02T13:08:53;29.00;;;16.90;;
75550;SDS011;65071;53.082;18.218;2024-03-02T13:11:20;31.00;;;16.80;;
75550;SDS011;65071;53.082;18.218;2024-03-02T13:13:48;30.80;;;15.90;;
75550;SDS011;65071;53.082;18.218;2024-03-02T13:16:14;29.80;;;15.90;;
75550;SDS011;65071;53.082;18.218;2024-03-02T13:18:42;28.40;;;15.10;;
75550;SDS011;65071;53.082;18.218;2024-03-02T13:21:08;26.20;;;14.20;;
75550;SDS011;65071;53.082;18.218;2024-03-02T13:23:35;30.20;;;15.10;;
75550;SDS011;65071;53.082;18.218;2024-03-02T13:26:01;35.60;;;18.30;;
75550;SDS011;65071;53.082;18.218;2024-03-02T13:28:28;37.70;;;19.60;;
75550;SDS011;65071;53.082;18.218;2024-03-02T13:30:54;32.50;;;18.80;;
75550;SDS011;65071;53.082;18.218;2024-03-02T13:33:21;32.90;;;16.50;;
75550;SDS011;65071;53.082;18.218;2024-03-02T13:35:51;32.90;;;16.20;;
75550;SDS011;65071;53.082;18.218;2024-03-02T13:38:21;31.60;;;16.60;;
75550;SDS011;65071;53.082;18.218;2024-03-02T13:40:48;36.30;;;18.20;;
75550;SDS011;65071;53.082;18.218;2024-03-02T13:43:18;34.00;;;17.60;;
75550;SDS011;65071;53.082;18.218;2024-03-02T13:45:45;35.50;;;18.20;;
75550;SDS011;65071;53.082;18.218;2024-03-02T13:48:12;33.80;;;17.80;;
75550;SDS011;65071;53.082;18.218;2024-03-02T13:50:40;36.60;;;18.60;;
75550;SDS011;65071;53.082;18.218;2024-03-02T13:53:07;34.40;;;17.50;;
75550;SDS011;65071;53.082;18.218;2024-03-02T13:55:34;32.10;;;17.70;;
75550;SDS011;65071;53.082;18.218;2024-03-02T13:58:00;35.60;;;18.10;;
75550;SDS011;65071;53.082;18.218;2024-03-02T14:00:27;33.10;;;19.20;;
75550;SDS011;65071;53.082;18.218;2024-03-02T14:02:55;38.00;;;17.70;;
75550;SDS011;65071;53.082;18.218;2024-03-02T14:05:21;31.10;;;15.90;;
75550;SDS011;65071;53.082;18.218;2024-03-02T14:07:48;30.70;;;17.00;;
75550;SDS011;65071;53.082;18.218;2024-03-02T14:10:14;29.40;;;13.60;;
75550;SDS011;65071;53.082;18.218;2024-03-02T14:12:41;34.90;;;17.40;;
75550;SDS011;65071;53.082;18.218;2024-03-02T14:15:07;38.10;;;19.80;;
75550;SDS011;65071;53.082;18.218;2024-03-02T14:17:34;37.90;;;18.80;;
75550;SDS011;65071;53.082;18.218;2024-03-02T14:20:00;38.10;;;18.40;;
75550;SDS011;65071;53.082;18.218;2024-03-02T14:22:27;29.20;;;16.20;;
75550;SDS011;65071;53.082;18.218;2024-03-02T14:24:54;35.30;;;18.00;;